Viking Sea — LAWP7 — position and weather

sailwx.info

Track history (hours):
 
Tides and Currents Weather Stations Pressure Air Temp Water Temp Dewpoint Dewpoint Depression Visibility Wind Speed Wind Dir Waves Ship Positions

Viking Sea

Last reported at 2019-Aug-20 10:28 UTC. Time now 2019-Aug-20 10:36 UTC.
Position N 55°42' E 012°36'.

Length 228 m; draft 6.8 m.

Type: Ship. MMSI: 258215000.

Date/timePositionNaut miles runAvg speedWind from/ knotsBaromVisibWave heightAir tempDewpointWater temp
2019-Aug-20 10:28N 55°42' E 012°36'0 0.0
2019-Aug-20 09:58N 55°42' E 012°36'0 0.0
2019-Aug-20 09:28N 55°42' E 012°36'0 0.0
2019-Aug-20 08:58N 55°42' E 012°36'0 0.0
2019-Aug-20 08:28N 55°42' E 012°36'0 0.0
2019-Aug-20 07:58N 55°42' E 012°36'0 0.0
2019-Aug-20 07:28N 55°42' E 012°36'0 0.0
2019-Aug-20 06:58N 55°42' E 012°36'0 0.0
2019-Aug-20 06:28N 55°42' E 012°36'1 1.6
2019-Aug-20 06:00N 55°42' E 012°37'4 8.7
2019-Aug-20 05:30N 55°46' E 012°41'611.6
2019-Aug-20 05:00N 55°52' E 012°40'611.1
2019-Aug-20 04:30N 55°57' E 012°40'511.0
2019-Aug-20 04:00N 56°03' E 012°39'611.3
2019-Aug-20 03:30N 56°07' E 012°32'611.5
2019-Aug-20 03:00N 56°10' E 012°23'611.5
2019-Aug-20 02:27N 56°14' E 012°14'3711.0
2019-Aug-19 23:06N 56°48' E 011°50'211.2
2019-Aug-19 22:55N 56°49' E 011°47'1011.6
2019-Aug-19 22:00N 56°51' E 011°28'3511.4
2019-Aug-19 18:59N 56°57' E 010°26'511.2
2019-Aug-19 18:31N 56°59' E 010°17'510.3
2019-Aug-19 18:00N 57°01' E 010°09'611.3
2019-Aug-19 17:30N 57°05' E 010°01'4 7.0
2019-Aug-19 17:00N 57°03' E 009°56'0 0.0
2019-Aug-19 16:30N 57°03' E 009°56'0 0.0
2019-Aug-19 16:00N 57°03' E 009°56'0 0.0
2019-Aug-19 15:30N 57°03' E 009°56'0 0.0
2019-Aug-19 15:00N 57°03' E 009°56'0 0.0
2019-Aug-19 14:27N 57°03' E 009°56'0 0.0
2019-Aug-19 14:00N 57°03' E 009°56'0 0.0
2019-Aug-19 13:30N 57°03' E 009°56'0 0.0
2019-Aug-19 13:00N 57°03' E 009°56'0 0.0
2019-Aug-19 12:30N 57°03' E 009°56'0 0.0
2019-Aug-19 12:00N 57°03' E 009°56'0 0.0
2019-Aug-19 11:30N 57°03' E 009°56'0 0.0
2019-Aug-19 11:00N 57°03' E 009°56'0 0.0
2019-Aug-19 10:30N 57°03' E 009°56'0 0.3
2019-Aug-19 10:00N 57°03' E 009°56'3 6.9
2019-Aug-19 09:30N 57°05' E 010°01'612.0
2019-Aug-19 09:00N 57°01' E 010°09'611.1
2019-Aug-19 08:30N 56°59' E 010°19'1011.9
2019-Aug-19 07:38N 56°53' E 010°33'611.4
2019-Aug-19 07:05N 56°51' E 010°45'211.2
2019-Aug-19 06:53N 56°53' E 010°48'512.2
2019-Aug-19 06:30N 56°57' E 010°51'612.3
2019-Aug-19 05:58N 57°03' E 010°49'612.6
2019-Aug-19 05:30N 57°09' E 010°46'612.7
2019-Aug-19 05:00N 57°15' E 010°44'612.7
2019-Aug-19 04:30N 57°22' E 010°44'612.8
2019-Aug-19 04:00N 57°28' E 010°44'612.8
2019-Aug-19 03:30N 57°34' E 010°45'815.6
2019-Aug-19 03:00N 57°42' E 010°46'714.2
2019-Aug-19 02:31N 57°48' E 010°39'918.2
2019-Aug-19 02:01N 57°48' E 010°22'917.7
2019-Aug-19 01:30N 57°47' E 010°06'917.8
2019-Aug-19 01:00N 57°47' E 009°49'917.5
2019-Aug-19 00:30N 57°46' E 009°32'916.9
2019-Aug-19 00:00N 57°46' E 009°16'918.1
2019-Aug-18 23:30N 57°45' E 009°00'918.4
2019-Aug-18 23:00N 57°43' E 008°43'918.7
2019-Aug-18 22:30N 57°42' E 008°26'917.9
2019-Aug-18 22:00N 57°42' E 008°09'816.7
2019-Aug-18 21:30N 57°41' E 007°53'816.6
2019-Aug-18 21:00N 57°41' E 007°38'916.8
2019-Aug-18 20:30N 57°41' E 007°22'816.5
2019-Aug-18 20:00N 57°42' E 007°07'916.8
2019-Aug-18 19:30N 57°42' E 006°51'816.9
2019-Aug-18 19:00N 57°43' E 006°35'817.1
2019-Aug-18 18:30N 57°49' E 006°23'816.8
2019-Aug-18 18:00N 57°54' E 006°11'816.8
2019-Aug-18 17:30N 57°60' E 005°59'816.6
2019-Aug-18 17:00N 58°05' E 005°48'816.3
2019-Aug-18 16:30N 58°11' E 005°36'816.5
2019-Aug-18 16:00N 58°16' E 005°24'815.4
2019-Aug-18 15:30N 58°22' E 005°15'815.7
2019-Aug-18 15:00N 58°30' E 005°14'714.9
2019-Aug-18 14:30N 58°37' E 005°16'815.4
2019-Aug-18 14:00N 58°45' E 005°18'713.6
2019-Aug-18 13:30N 58°51' E 005°24'611.7
2019-Aug-18 13:00N 58°55' E 005°32'714.6
2019-Aug-18 12:30N 59°02' E 005°33'5 9.3
2019-Aug-18 12:00N 59°00' E 005°41'2 4.9
2019-Aug-18 11:30N 58°58' E 005°44'0 0.0
2019-Aug-18 10:58N 58°58' E 005°44'0 0.0
2019-Aug-18 10:28N 58°58' E 005°44'0 0.0
2019-Aug-18 09:58N 58°58' E 005°44'0 0.0
2019-Aug-18 09:28N 58°58' E 005°44'0 0.0
2019-Aug-18 08:58N 58°58' E 005°44'0 0.0
2019-Aug-18 08:28N 58°58' E 005°44'0 0.0
2019-Aug-18 08:00N 58°58' E 005°44'0 0.0
2019-Aug-18 07:00N 58°58' E 005°44'0 0.0
2019-Aug-18 06:30N 58°58' E 005°44'0 0.0
2019-Aug-18 06:00N 58°58' E 005°44'0 0.0
2019-Aug-18 05:30N 58°58' E 005°44'0 0.0
2019-Aug-18 05:00N 58°58' E 005°44'0 0.1
2019-Aug-18 04:30N 58°58' E 005°44'3 6.1
2019-Aug-18 04:00N 59°01' E 005°40'510.1
2019-Aug-18 03:30N 59°04' E 005°33'5 9.3
2019-Aug-18 03:00N 59°06' E 005°24'612.7
2019-Aug-18 02:30N 59°03' E 005°14'510.2
2019-Aug-18 02:00N 59°04' E 005°04'510.3
2019-Aug-18 01:30N 59°08' E 004°57'612.7
2019-Aug-18 01:00N 59°14' E 005°01'713.3
2019-Aug-18 00:30N 59°20' E 005°05'713.3
2019-Aug-18 00:01N 59°27' E 005°10'612.3
2019-Aug-17 23:30N 59°33' E 005°12'713.0
2019-Aug-17 23:00N 59°38' E 005°18'613.0
2019-Aug-17 22:30N 59°43' E 005°27'713.0
2019-Aug-17 22:00N 59°48' E 005°35'713.4
2019-Aug-17 21:30N 59°54' E 005°43'612.9
2019-Aug-17 21:00N 59°59' E 005°51'612.3
2019-Aug-17 20:30N 60°03' E 005°59'611.5
2019-Aug-17 20:00N 60°08' E 006°05'611.2
2019-Aug-17 19:30N 60°14' E 006°07'713.7
2019-Aug-17 19:00N 60°19' E 006°15'815.8
2019-Aug-17 18:30N 60°25' E 006°26'1414.0
2019-Aug-17 17:30N 60°29' E 006°53'5 9.8
2019-Aug-17 16:57N 60°28' E 007°04'0 0.0
2019-Aug-17 16:30N 60°28' E 007°04'0 0.0
2019-Aug-17 16:00N 60°28' E 007°04'0 0.0
2019-Aug-17 15:30N 60°28' E 007°04'0 0.0
2019-Aug-17 15:00N 60°28' E 007°04'0 0.0
2019-Aug-17 14:30N 60°28' E 007°04'0 0.0
2019-Aug-17 14:00N 60°28' E 007°04'0 0.0
2019-Aug-17 13:30N 60°28' E 007°04'0 0.0
2019-Aug-17 13:00N 60°28' E 007°04'0 0.0
2019-Aug-17 12:30N 60°28' E 007°04'0 0.0
2019-Aug-17 12:00N 60°28' E 007°04'0 0.0
2019-Aug-17 11:30N 60°28' E 007°04'0 0.0
2019-Aug-17 11:00N 60°28' E 007°04'0 0.0
2019-Aug-17 10:24N 60°28' E 007°04'0 0.0
2019-Aug-17 09:54N 60°28' E 007°04'0 0.0
2019-Aug-17 09:30N 60°28' E 007°04'0 0.0
2019-Aug-17 09:00N 60°28' E 007°04'0 0.0
2019-Aug-17 08:30N 60°28' E 007°04'0 0.0
2019-Aug-17 08:00N 60°28' E 007°04'0 0.0
2019-Aug-17 07:30N 60°28' E 007°04'0 0.0
2019-Aug-17 07:00N 60°28' E 007°04'0 0.0
2019-Aug-17 06:30N 60°28' E 007°04'0 0.0
2019-Aug-17 06:00N 60°28' E 007°04'0 0.4
2019-Aug-17 05:31N 60°28' E 007°04'4 6.9
2019-Aug-17 05:00N 60°29' E 006°57'4 8.0
2019-Aug-17 04:30N 60°28' E 006°49'4 8.3
2019-Aug-17 04:00N 60°26' E 006°42'4 7.8
2019-Aug-17 03:30N 60°26' E 006°35'4 7.9
2019-Aug-17 03:00N 60°25' E 006°27'4 8.3
2019-Aug-17 02:30N 60°22' E 006°20'4 8.0
2019-Aug-17 02:00N 60°19' E 006°16'4 7.8
2019-Aug-17 01:30N 60°16' E 006°12'4 7.6
2019-Aug-17 01:00N 60°13' E 006°06'3 6.9
2019-Aug-17 00:30N 60°10' E 006°05'4 7.5
2019-Aug-17 00:00N 60°06' E 006°05'4 8.0
2019-Aug-16 23:30N 60°03' E 005°59'4 7.9
2019-Aug-16 23:00N 60°00' E 005°54'4 7.9
2019-Aug-16 22:30N 59°57' E 005°49'4 8.1
2019-Aug-16 22:00N 59°54' E 005°44'4 7.7
2019-Aug-16 21:29N 59°51' E 005°39'3 7.1
2019-Aug-16 21:00N 59°49' E 005°34'4 8.0
2019-Aug-16 20:30N 59°53' E 005°32'4 7.6
2019-Aug-16 20:00N 59°56' E 005°28'4 7.7
2019-Aug-16 19:30N 59°59' E 005°22'4 7.5
2019-Aug-16 19:00N 60°02' E 005°19'4 8.3
2019-Aug-16 18:30N 60°06' E 005°18'510.8
2019-Aug-16 18:00N 60°11' E 005°13'510.3
2019-Aug-16 17:29N 60°16' E 005°09'510.2
2019-Aug-16 17:00N 60°21' E 005°10'5 9.2
2019-Aug-16 16:30N 60°24' E 005°16'1 2.1
2019-Aug-16 15:58N 60°24' E 005°19'0 0.0
2019-Aug-16 15:28N 60°24' E 005°19'0 0.0
2019-Aug-16 14:58N 60°24' E 005°19'0 0.0
2019-Aug-16 14:28N 60°24' E 005°19'0 0.0
2019-Aug-16 13:58N 60°24' E 005°19'0 0.0
2019-Aug-16 13:28N 60°24' E 005°19'0 0.0
2019-Aug-16 12:58N 60°24' E 005°19'0 0.0
2019-Aug-16 12:28N 60°24' E 005°19'0 0.0
2019-Aug-16 11:58N 60°24' E 005°19'0 0.0
2019-Aug-16 11:28N 60°24' E 005°19'0 0.0
2019-Aug-16 10:58N 60°24' E 005°19'0 0.0
2019-Aug-16 10:28N 60°24' E 005°19'0 0.0
2019-Aug-16 09:58N 60°24' E 005°19'0 0.0
2019-Aug-16 09:28N 60°24' E 005°19'0 0.0
2019-Aug-16 08:58N 60°24' E 005°19'0 0.0
2019-Aug-16 08:28N 60°24' E 005°19'0 0.0
2019-Aug-16 07:58N 60°24' E 005°19'0 0.0
2019-Aug-16 07:28N 60°24' E 005°19'0 0.0
2019-Aug-16 06:58N 60°24' E 005°19'0 0.0
2019-Aug-16 06:28N 60°24' E 005°19'0 0.0
2019-Aug-16 05:58N 60°24' E 005°19'0 0.0
2019-Aug-16 05:28N 60°24' E 005°19'0 0.0
2019-Aug-16 04:58N 60°24' E 005°19'0 0.0
2019-Aug-16 04:28N 60°24' E 005°19'0 0.0
2019-Aug-16 03:58N 60°24' E 005°19'0 0.0
2019-Aug-16 03:28N 60°24' E 005°19'0 0.0
2019-Aug-16 02:58N 60°24' E 005°19'0 0.0
2019-Aug-16 02:28N 60°24' E 005°19'0 0.0
2019-Aug-16 01:58N 60°24' E 005°19'0 0.0
2019-Aug-16 01:28N 60°24' E 005°19'0 0.0
2019-Aug-16 00:58N 60°24' E 005°19'0 0.0
2019-Aug-16 00:28N 60°24' E 005°19'0 0.0
2019-Aug-15 23:58N 60°24' E 005°19'0 0.0
2019-Aug-15 23:28N 60°24' E 005°19'0 0.0
2019-Aug-15 22:58N 60°24' E 005°19'0 0.0
2019-Aug-15 22:28N 60°24' E 005°19'0 0.0
2019-Aug-15 21:58N 60°24' E 005°19'0 0.0
2019-Aug-15 21:28N 60°24' E 005°19'0 0.0
2019-Aug-15 20:58N 60°24' E 005°19'0 0.0
2019-Aug-15 20:28N 60°24' E 005°19'0 0.0
2019-Aug-15 19:58N 60°24' E 005°19'0 0.0
2019-Aug-15 19:28N 60°24' E 005°19'0 0.0
2019-Aug-15 18:58N 60°24' E 005°19'0 0.0
2019-Aug-15 18:28N 60°24' E 005°19'0 0.0
2019-Aug-15 17:58N 60°24' E 005°19'0 0.0
2019-Aug-15 17:28N 60°24' E 005°19'0 0.0
2019-Aug-15 16:58N 60°24' E 005°19'0 0.0
2019-Aug-15 16:28N 60°24' E 005°19'0 0.0
2019-Aug-15 15:58N 60°24' E 005°19'0 0.0
2019-Aug-15 15:28N 60°24' E 005°19'0 0.0
2019-Aug-15 14:58N 60°24' E 005°19'0 0.0
2019-Aug-15 14:28N 60°24' E 005°19'0 0.0
2019-Aug-15 13:58N 60°24' E 005°19'0 0.0
2019-Aug-15 13:28N 60°24' E 005°19'0 0.0
2019-Aug-15 12:58N 60°24' E 005°19'0 0.0
2019-Aug-15 12:28N 60°24' E 005°19'0 0.0
2019-Aug-15 11:58N 60°24' E 005°19'0 0.0
2019-Aug-15 11:28N 60°24' E 005°19'0 0.0
2019-Aug-15 10:58N 60°24' E 005°19'0 0.0
2019-Aug-15 10:28N 60°24' E 005°19'0 0.0
2019-Aug-15 09:58N 60°24' E 005°19'0 0.0
2019-Aug-15 09:28N 60°24' E 005°19'0 0.0
2019-Aug-15 08:52N 60°24' E 005°19'0 0.0
2019-Aug-15 08:28N 60°24' E 005°19'0 0.0
2019-Aug-15 07:58N 60°24' E 005°19'0 0.0
2019-Aug-15 07:28N 60°24' E 005°19'0 0.0
2019-Aug-15 06:58N 60°24' E 005°19'0 0.0
2019-Aug-15 06:28N 60°24' E 005°19'0 0.0
2019-Aug-15 05:58N 60°24' E 005°19'0 0.0
2019-Aug-15 05:28N 60°24' E 005°19'0 0.0
2019-Aug-15 04:58N 60°24' E 005°19'0 0.0
2019-Aug-15 04:28N 60°24' E 005°19'0 0.0
2019-Aug-15 03:58N 60°24' E 005°19'0 0.0
2019-Aug-15 03:28N 60°24' E 005°19'0 0.0
2019-Aug-15 02:58N 60°24' E 005°19'0 0.0
2019-Aug-15 02:28N 60°24' E 005°19'0 0.0
2019-Aug-15 01:58N 60°24' E 005°19'0 0.0
2019-Aug-15 01:28N 60°24' E 005°19'0 0.0
2019-Aug-15 00:58N 60°24' E 005°19'0 0.0
2019-Aug-15 00:28N 60°24' E 005°19'0 0.0
2019-Aug-14 23:58N 60°24' E 005°19'0 0.0
2019-Aug-14 23:28N 60°24' E 005°19'0 0.0
2019-Aug-14 22:58N 60°24' E 005°19'0 0.0
2019-Aug-14 22:28N 60°24' E 005°19'0 0.0
2019-Aug-14 21:58N 60°24' E 005°19'0 0.0
2019-Aug-14 21:28N 60°24' E 005°19'0 0.0
2019-Aug-14 20:58N 60°24' E 005°19'0 0.0
2019-Aug-14 20:28N 60°24' E 005°19'0 0.0
2019-Aug-14 19:58N 60°24' E 005°19'0 0.0
2019-Aug-14 19:28N 60°24' E 005°19'0 0.0
2019-Aug-14 18:58N 60°24' E 005°19'0 0.0
2019-Aug-14 18:28N 60°24' E 005°19'0 0.0
2019-Aug-14 17:58N 60°24' E 005°19'0 0.0
2019-Aug-14 17:28N 60°24' E 005°19'0 0.0
2019-Aug-14 16:58N 60°24' E 005°19'0 0.0
2019-Aug-14 16:28N 60°24' E 005°19'0 0.0
2019-Aug-14 15:58N 60°24' E 005°19'0 0.0
2019-Aug-14 15:28N 60°24' E 005°19'0 0.0
2019-Aug-14 14:58N 60°24' E 005°19'0 0.0
2019-Aug-14 14:28N 60°24' E 005°19'0 0.0
2019-Aug-14 13:58N 60°24' E 005°19'0 0.0
2019-Aug-14 13:28N 60°24' E 005°19'0 0.0
2019-Aug-14 12:58N 60°24' E 005°19'0 0.0
2019-Aug-14 12:28N 60°24' E 005°19'0 0.0
2019-Aug-14 11:58N 60°24' E 005°19'0 0.0
2019-Aug-14 11:28N 60°24' E 005°19'0 0.0
2019-Aug-14 10:58N 60°24' E 005°19'0 0.0
2019-Aug-14 10:28N 60°24' E 005°19'0 0.0
2019-Aug-14 09:58N 60°24' E 005°19'0 0.0
2019-Aug-14 09:28N 60°24' E 005°19'0 0.0
2019-Aug-14 08:58N 60°24' E 005°19'0 0.0
2019-Aug-14 08:28N 60°24' E 005°19'0 0.0
2019-Aug-14 07:58N 60°24' E 005°19'0 0.0
2019-Aug-14 07:28N 60°24' E 005°19'0 0.0
2019-Aug-14 06:58N 60°24' E 005°19'0 0.0
2019-Aug-14 06:28N 60°24' E 005°19'0 0.0
2019-Aug-14 05:58N 60°24' E 005°19'1 1.2
2019-Aug-14 05:30N 60°24' E 005°18'5 9.8
2019-Aug-14 05:00N 60°21' E 005°10'713.3
2019-Aug-14 04:30N 60°14' E 005°09'612.2
2019-Aug-14 04:00N 60°09' E 005°03'612.4
2019-Aug-14 03:30N 60°08' E 004°51'714.3
2019-Aug-14 03:00N 60°08' E 004°37'714.2
2019-Aug-14 02:30N 60°08' E 004°22'714.0
2019-Aug-14 02:00N 60°08' E 004°08'713.6
2019-Aug-14 01:30N 60°08' E 003°55'713.7
2019-Aug-14 01:00N 60°08' E 003°41'713.9
2019-Aug-14 00:30N 60°08' E 003°27'816.0
2019-Aug-14 00:00N 60°08' E 003°11'817.0
2019-Aug-13 23:30N 60°07' E 002°54'1017.1
2019-Aug-13 22:56N 60°07' E 002°34'173 7.0
2019-Aug-12 22:11N 58°30' W 002°06'314.5
2019-Aug-12 21:58N 58°27' W 002°08'1414.6
2019-Aug-12 21:00N 58°13' W 002°18'33 1.7
2019-Aug-12 01:33N 57°45' W 001°48'117.9
2019-Aug-12 01:30N 57°44' W 001°47'917.8
2019-Aug-12 01:01N 57°37' W 001°37'917.3
2019-Aug-12 00:31N 57°29' W 001°34'917.3
2019-Aug-12 00:01N 57°20' W 001°34'917.3
2019-Aug-11 23:30N 57°11' W 001°33'916.8
2019-Aug-11 22:59N 57°03' W 001°38'817.2
2019-Aug-11 22:30N 56°55' W 001°43'2517.4
2019-Aug-11 21:03N 56°32' W 002°02'117.5
2019-Aug-11 21:00N 56°31' W 002°02'1117.4
2019-Aug-11 20:24N 56°22' W 002°12'717.5
2019-Aug-11 20:01N 56°17' W 002°19'917.8
2019-Aug-11 19:31N 56°10' W 002°29'816.9
2019-Aug-11 19:01N 56°07' W 002°43'816.2
2019-Aug-11 18:31N 56°04' W 002°57'612.5
2019-Aug-11 18:00N 56°01' W 003°07'3 5.5
2019-Aug-11 17:30N 56°00' W 003°11'0 0.1
2019-Aug-11 17:00N 56°00' W 003°11'0 0.0
2019-Aug-11 16:30N 56°00' W 003°11'0 0.0
2019-Aug-11 16:00N 56°00' W 003°11'0 0.0
2019-Aug-11 15:30N 56°00' W 003°11'0 0.0
2019-Aug-11 15:00N 56°00' W 003°11'0 0.1
2019-Aug-11 14:30N 56°00' W 003°11'0 0.1
2019-Aug-11 14:00N 56°00' W 003°11'0 0.0
2019-Aug-11 13:30N 56°00' W 003°11'0 0.1
2019-Aug-11 13:00N 56°00' W 003°11'0 0.0
2019-Aug-11 12:30N 56°00' W 003°11'0 0.0
2019-Aug-11 12:00N 56°00' W 003°11'0 0.1
2019-Aug-11 11:30N 56°00' W 003°11'0 0.0
2019-Aug-11 11:00N 56°00' W 003°11'0 0.1
2019-Aug-11 10:30N 56°00' W 003°11'0 0.0
2019-Aug-11 10:00N 56°00' W 003°11'0 0.0
2019-Aug-11 09:30N 56°00' W 003°11'0 0.0
2019-Aug-11 09:00N 56°00' W 003°11'0 0.0
2019-Aug-11 08:30N 56°00' W 003°11'0 0.0
2019-Aug-11 08:00N 56°00' W 003°11'0 0.0
2019-Aug-11 07:30N 56°00' W 003°11'0 0.1
2019-Aug-11 07:00N 56°00' W 003°11'1 2.3
2019-Aug-11 06:30N 56°00' W 003°09'613.0
2019-Aug-11 06:01N 56°04' W 002°59'714.0
2019-Aug-11 05:31N 56°06' W 002°47'815.3
2019-Aug-11 05:01N 56°09' W 002°35'714.7
2019-Aug-11 04:31N 56°13' W 002°24'815.3
2019-Aug-11 04:00N 56°20' W 002°16'815.4
2019-Aug-11 03:30N 56°26' W 002°08'715.0
2019-Aug-11 03:01N 56°32' W 002°01'2314.8
2019-Aug-11 01:27N 56°54' W 001°45'714.9
2019-Aug-11 01:01N 56°60' W 001°41'814.5
2019-Aug-11 00:29N 57°07' W 001°37'714.8
2019-Aug-11 00:01N 57°14' W 001°35'915.0
2019-Aug-10 23:23N 57°23' W 001°34'615.4
2019-Aug-10 23:01N 57°29' W 001°34'815.8
2019-Aug-10 22:30N 57°37' W 001°36'7515.4
2019-Aug-10 17:36N 58°47' W 002°27'314.7
2019-Aug-10 17:24N 58°50' W 002°30'615.1
2019-Aug-10 17:00N 58°55' W 002°36'815.9
2019-Aug-10 16:30N 59°00' W 002°48'510.5
2019-Aug-10 16:00N 59°01' W 002°58'1 1.2
2019-Aug-10 15:28N 58°60' W 002°58'0 0.0
2019-Aug-10 14:58N 58°60' W 002°58'0 0.0
2019-Aug-10 14:28N 58°60' W 002°58'0 0.0
2019-Aug-10 13:58N 58°60' W 002°58'0 0.0
2019-Aug-10 13:28N 58°60' W 002°58'0 0.0
2019-Aug-10 12:58N 58°60' W 002°58'0 0.0
2019-Aug-10 12:28N 58°60' W 002°58'0 0.0
2019-Aug-10 11:55N 58°60' W 002°58'0 0.0
2019-Aug-10 11:28N 58°60' W 002°58'0 0.0
2019-Aug-10 10:58N 58°60' W 002°58'  
Track history (hours):
 
Tides and Currents Weather Stations Pressure Air Temp Water Temp Dewpoint Dewpoint Depression Visibility Wind Speed Wind Dir Waves Ship Positions

Viking Sea

Last reported at 2019-Aug-20 10:28 UTC. Time now 2019-Aug-20 10:36 UTC.
Position N 55°42' E 012°36'.

Length 228 m; draft 6.8 m.

Type: Ship. MMSI: 258215000.

Date/timePositionNaut miles runAvg speedWind from/ knotsBaromVisibWave heightAir tempDewpointWater temp
2019-Aug-20 10:28N 55°42' E 012°36'0 0.0
2019-Aug-20 09:58N 55°42' E 012°36'0 0.0
2019-Aug-20 09:28N 55°42' E 012°36'0 0.0
2019-Aug-20 08:58N 55°42' E 012°36'0 0.0
2019-Aug-20 08:28N 55°42' E 012°36'0 0.0
2019-Aug-20 07:58N 55°42' E 012°36'0 0.0
2019-Aug-20 07:28N 55°42' E 012°36'0 0.0
2019-Aug-20 06:58N 55°42' E 012°36'0 0.0
2019-Aug-20 06:28N 55°42' E 012°36'1 1.6
2019-Aug-20 06:00N 55°42' E 012°37'4 8.7
2019-Aug-20 05:30N 55°46' E 012°41'611.6
2019-Aug-20 05:00N 55°52' E 012°40'611.1
2019-Aug-20 04:30N 55°57' E 012°40'511.0
2019-Aug-20 04:00N 56°03' E 012°39'611.3
2019-Aug-20 03:30N 56°07' E 012°32'611.5
2019-Aug-20 03:00N 56°10' E 012°23'611.5
2019-Aug-20 02:27N 56°14' E 012°14'3711.0
2019-Aug-19 23:06N 56°48' E 011°50'211.2
2019-Aug-19 22:55N 56°49' E 011°47'1011.6
2019-Aug-19 22:00N 56°51' E 011°28'3511.4
2019-Aug-19 18:59N 56°57' E 010°26'511.2
2019-Aug-19 18:31N 56°59' E 010°17'510.3
2019-Aug-19 18:00N 57°01' E 010°09'611.3
2019-Aug-19 17:30N 57°05' E 010°01'4 7.0
2019-Aug-19 17:00N 57°03' E 009°56'0 0.0
2019-Aug-19 16:30N 57°03' E 009°56'0 0.0
2019-Aug-19 16:00N 57°03' E 009°56'0 0.0
2019-Aug-19 15:30N 57°03' E 009°56'0 0.0
2019-Aug-19 15:00N 57°03' E 009°56'0 0.0
2019-Aug-19 14:27N 57°03' E 009°56'0 0.0
2019-Aug-19 14:00N 57°03' E 009°56'0 0.0
2019-Aug-19 13:30N 57°03' E 009°56'0 0.0
2019-Aug-19 13:00N 57°03' E 009°56'0 0.0
2019-Aug-19 12:30N 57°03' E 009°56'0 0.0
2019-Aug-19 12:00N 57°03' E 009°56'0 0.0
2019-Aug-19 11:30N 57°03' E 009°56'0 0.0
2019-Aug-19 11:00N 57°03' E 009°56'0 0.0
2019-Aug-19 10:30N 57°03' E 009°56'0 0.3
2019-Aug-19 10:00N 57°03' E 009°56'3 6.9
2019-Aug-19 09:30N 57°05' E 010°01'612.0
2019-Aug-19 09:00N 57°01' E 010°09'611.1
2019-Aug-19 08:30N 56°59' E 010°19'1011.9
2019-Aug-19 07:38N 56°53' E 010°33'611.4
2019-Aug-19 07:05N 56°51' E 010°45'211.2
2019-Aug-19 06:53N 56°53' E 010°48'512.2
2019-Aug-19 06:30N 56°57' E 010°51'612.3
2019-Aug-19 05:58N 57°03' E 010°49'612.6
2019-Aug-19 05:30N 57°09' E 010°46'612.7
2019-Aug-19 05:00N 57°15' E 010°44'612.7
2019-Aug-19 04:30N 57°22' E 010°44'612.8
2019-Aug-19 04:00N 57°28' E 010°44'612.8
2019-Aug-19 03:30N 57°34' E 010°45'815.6
2019-Aug-19 03:00N 57°42' E 010°46'714.2
2019-Aug-19 02:31N 57°48' E 010°39'918.2
2019-Aug-19 02:01N 57°48' E 010°22'917.7
2019-Aug-19 01:30N 57°47' E 010°06'917.8
2019-Aug-19 01:00N 57°47' E 009°49'917.5
2019-Aug-19 00:30N 57°46' E 009°32'916.9
2019-Aug-19 00:00N 57°46' E 009°16'918.1
2019-Aug-18 23:30N 57°45' E 009°00'918.4
2019-Aug-18 23:00N 57°43' E 008°43'918.7
2019-Aug-18 22:30N 57°42' E 008°26'917.9
2019-Aug-18 22:00N 57°42' E 008°09'816.7
2019-Aug-18 21:30N 57°41' E 007°53'816.6
2019-Aug-18 21:00N 57°41' E 007°38'916.8
2019-Aug-18 20:30N 57°41' E 007°22'816.5
2019-Aug-18 20:00N 57°42' E 007°07'916.8
2019-Aug-18 19:30N 57°42' E 006°51'816.9
2019-Aug-18 19:00N 57°43' E 006°35'817.1
2019-Aug-18 18:30N 57°49' E 006°23'816.8
2019-Aug-18 18:00N 57°54' E 006°11'816.8
2019-Aug-18 17:30N 57°60' E 005°59'816.6
2019-Aug-18 17:00N 58°05' E 005°48'816.3
2019-Aug-18 16:30N 58°11' E 005°36'816.5
2019-Aug-18 16:00N 58°16' E 005°24'815.4
2019-Aug-18 15:30N 58°22' E 005°15'815.7
2019-Aug-18 15:00N 58°30' E 005°14'714.9
2019-Aug-18 14:30N 58°37' E 005°16'815.4
2019-Aug-18 14:00N 58°45' E 005°18'713.6
2019-Aug-18 13:30N 58°51' E 005°24'611.7
2019-Aug-18 13:00N 58°55' E 005°32'714.6
2019-Aug-18 12:30N 59°02' E 005°33'5 9.3
2019-Aug-18 12:00N 59°00' E 005°41'2 4.9
2019-Aug-18 11:30N 58°58' E 005°44'0 0.0
2019-Aug-18 10:58N 58°58' E 005°44'0 0.0
2019-Aug-18 10:28N 58°58' E 005°44'0 0.0
2019-Aug-18 09:58N 58°58' E 005°44'0 0.0
2019-Aug-18 09:28N 58°58' E 005°44'0 0.0
2019-Aug-18 08:58N 58°58' E 005°44'0 0.0
2019-Aug-18 08:28N 58°58' E 005°44'0 0.0
2019-Aug-18 08:00N 58°58' E 005°44'0 0.0
2019-Aug-18 07:00N 58°58' E 005°44'0 0.0
2019-Aug-18 06:30N 58°58' E 005°44'0 0.0
2019-Aug-18 06:00N 58°58' E 005°44'0 0.0
2019-Aug-18 05:30N 58°58' E 005°44'0 0.0
2019-Aug-18 05:00N 58°58' E 005°44'0 0.1
2019-Aug-18 04:30N 58°58' E 005°44'3 6.1
2019-Aug-18 04:00N 59°01' E 005°40'510.1
2019-Aug-18 03:30N 59°04' E 005°33'5 9.3
2019-Aug-18 03:00N 59°06' E 005°24'612.7
2019-Aug-18 02:30N 59°03' E 005°14'510.2
2019-Aug-18 02:00N 59°04' E 005°04'510.3
2019-Aug-18 01:30N 59°08' E 004°57'612.7
2019-Aug-18 01:00N 59°14' E 005°01'713.3
2019-Aug-18 00:30N 59°20' E 005°05'713.3
2019-Aug-18 00:01N 59°27' E 005°10'612.3
2019-Aug-17 23:30N 59°33' E 005°12'713.0
2019-Aug-17 23:00N 59°38' E 005°18'613.0
2019-Aug-17 22:30N 59°43' E 005°27'713.0
2019-Aug-17 22:00N 59°48' E 005°35'713.4
2019-Aug-17 21:30N 59°54' E 005°43'612.9
2019-Aug-17 21:00N 59°59' E 005°51'612.3
2019-Aug-17 20:30N 60°03' E 005°59'611.5
2019-Aug-17 20:00N 60°08' E 006°05'611.2
2019-Aug-17 19:30N 60°14' E 006°07'713.7
2019-Aug-17 19:00N 60°19' E 006°15'815.8
2019-Aug-17 18:30N 60°25' E 006°26'1414.0
2019-Aug-17 17:30N 60°29' E 006°53'5 9.8
2019-Aug-17 16:57N 60°28' E 007°04'0 0.0
2019-Aug-17 16:30N 60°28' E 007°04'0 0.0
2019-Aug-17 16:00N 60°28' E 007°04'0 0.0
2019-Aug-17 15:30N 60°28' E 007°04'0 0.0
2019-Aug-17 15:00N 60°28' E 007°04'0 0.0
2019-Aug-17 14:30N 60°28' E 007°04'0 0.0
2019-Aug-17 14:00N 60°28' E 007°04'0 0.0
2019-Aug-17 13:30N 60°28' E 007°04'0 0.0
2019-Aug-17 13:00N 60°28' E 007°04'0 0.0
2019-Aug-17 12:30N 60°28' E 007°04'0 0.0
2019-Aug-17 12:00N 60°28' E 007°04'0 0.0
2019-Aug-17 11:30N 60°28' E 007°04'0 0.0
2019-Aug-17 11:00N 60°28' E 007°04'0 0.0
2019-Aug-17 10:24N 60°28' E 007°04'0 0.0
2019-Aug-17 09:54N 60°28' E 007°04'0 0.0
2019-Aug-17 09:30N 60°28' E 007°04'0 0.0
2019-Aug-17 09:00N 60°28' E 007°04'0 0.0
2019-Aug-17 08:30N 60°28' E 007°04'0 0.0
2019-Aug-17 08:00N 60°28' E 007°04'0 0.0
2019-Aug-17 07:30N 60°28' E 007°04'0 0.0
2019-Aug-17 07:00N 60°28' E 007°04'0 0.0
2019-Aug-17 06:30N 60°28' E 007°04'0 0.0
2019-Aug-17 06:00N 60°28' E 007°04'0 0.4
2019-Aug-17 05:31N 60°28' E 007°04'4 6.9
2019-Aug-17 05:00N 60°29' E 006°57'4 8.0
2019-Aug-17 04:30N 60°28' E 006°49'4 8.3
2019-Aug-17 04:00N 60°26' E 006°42'4 7.8
2019-Aug-17 03:30N 60°26' E 006°35'4 7.9
2019-Aug-17 03:00N 60°25' E 006°27'4 8.3
2019-Aug-17 02:30N 60°22' E 006°20'4 8.0
2019-Aug-17 02:00N 60°19' E 006°16'4 7.8
2019-Aug-17 01:30N 60°16' E 006°12'4 7.6
2019-Aug-17 01:00N 60°13' E 006°06'3 6.9
2019-Aug-17 00:30N 60°10' E 006°05'4 7.5
2019-Aug-17 00:00N 60°06' E 006°05'4 8.0
2019-Aug-16 23:30N 60°03' E 005°59'4 7.9
2019-Aug-16 23:00N 60°00' E 005°54'4 7.9
2019-Aug-16 22:30N 59°57' E 005°49'4 8.1
2019-Aug-16 22:00N 59°54' E 005°44'4 7.7
2019-Aug-16 21:29N 59°51' E 005°39'3 7.1
2019-Aug-16 21:00N 59°49' E 005°34'4 8.0
2019-Aug-16 20:30N 59°53' E 005°32'4 7.6
2019-Aug-16 20:00N 59°56' E 005°28'4 7.7
2019-Aug-16 19:30N 59°59' E 005°22'4 7.5
2019-Aug-16 19:00N 60°02' E 005°19'4 8.3
2019-Aug-16 18:30N 60°06' E 005°18'510.8
2019-Aug-16 18:00N 60°11' E 005°13'510.3
2019-Aug-16 17:29N 60°16' E 005°09'510.2
2019-Aug-16 17:00N 60°21' E 005°10'5 9.2
2019-Aug-16 16:30N 60°24' E 005°16'1 2.1
2019-Aug-16 15:58N 60°24' E 005°19'0 0.0
2019-Aug-16 15:28N 60°24' E 005°19'0 0.0
2019-Aug-16 14:58N 60°24' E 005°19'0 0.0
2019-Aug-16 14:28N 60°24' E 005°19'0 0.0
2019-Aug-16 13:58N 60°24' E 005°19'0 0.0
2019-Aug-16 13:28N 60°24' E 005°19'0 0.0
2019-Aug-16 12:58N 60°24' E 005°19'0 0.0
2019-Aug-16 12:28N 60°24' E 005°19'0 0.0
2019-Aug-16 11:58N 60°24' E 005°19'0 0.0
2019-Aug-16 11:28N 60°24' E 005°19'0 0.0
2019-Aug-16 10:58N 60°24' E 005°19'0 0.0
2019-Aug-16 10:28N 60°24' E 005°19'0 0.0
2019-Aug-16 09:58N 60°24' E 005°19'0 0.0
2019-Aug-16 09:28N 60°24' E 005°19'0 0.0
2019-Aug-16 08:58N 60°24' E 005°19'0 0.0
2019-Aug-16 08:28N 60°24' E 005°19'0 0.0
2019-Aug-16 07:58N 60°24' E 005°19'0 0.0
2019-Aug-16 07:28N 60°24' E 005°19'0 0.0
2019-Aug-16 06:58N 60°24' E 005°19'0 0.0
2019-Aug-16 06:28N 60°24' E 005°19'0 0.0
2019-Aug-16 05:58N 60°24' E 005°19'0 0.0
2019-Aug-16 05:28N 60°24' E 005°19'0 0.0
2019-Aug-16 04:58N 60°24' E 005°19'0 0.0
2019-Aug-16 04:28N 60°24' E 005°19'0 0.0
2019-Aug-16 03:58N 60°24' E 005°19'0 0.0
2019-Aug-16 03:28N 60°24' E 005°19'0 0.0
2019-Aug-16 02:58N 60°24' E 005°19'0 0.0
2019-Aug-16 02:28N 60°24' E 005°19'0 0.0
2019-Aug-16 01:58N 60°24' E 005°19'0 0.0
2019-Aug-16 01:28N 60°24' E 005°19'0 0.0
2019-Aug-16 00:58N 60°24' E 005°19'0 0.0
2019-Aug-16 00:28N 60°24' E 005°19'0 0.0
2019-Aug-15 23:58N 60°24' E 005°19'0 0.0
2019-Aug-15 23:28N 60°24' E 005°19'0 0.0
2019-Aug-15 22:58N 60°24' E 005°19'0 0.0
2019-Aug-15 22:28N 60°24' E 005°19'0 0.0
2019-Aug-15 21:58N 60°24' E 005°19'0 0.0
2019-Aug-15 21:28N 60°24' E 005°19'0 0.0
2019-Aug-15 20:58N 60°24' E 005°19'0 0.0
2019-Aug-15 20:28N 60°24' E 005°19'0 0.0
2019-Aug-15 19:58N 60°24' E 005°19'0 0.0
2019-Aug-15 19:28N 60°24' E 005°19'0 0.0
2019-Aug-15 18:58N 60°24' E 005°19'0 0.0
2019-Aug-15 18:28N 60°24' E 005°19'0 0.0
2019-Aug-15 17:58N 60°24' E 005°19'0 0.0
2019-Aug-15 17:28N 60°24' E 005°19'0 0.0
2019-Aug-15 16:58N 60°24' E 005°19'0 0.0
2019-Aug-15 16:28N 60°24' E 005°19'0 0.0
2019-Aug-15 15:58N 60°24' E 005°19'0 0.0
2019-Aug-15 15:28N 60°24' E 005°19'0 0.0
2019-Aug-15 14:58N 60°24' E 005°19'0 0.0
2019-Aug-15 14:28N 60°24' E 005°19'0 0.0
2019-Aug-15 13:58N 60°24' E 005°19'0 0.0
2019-Aug-15 13:28N 60°24' E 005°19'0 0.0
2019-Aug-15 12:58N 60°24' E 005°19'0 0.0
2019-Aug-15 12:28N 60°24' E 005°19'0 0.0
2019-Aug-15 11:58N 60°24' E 005°19'0 0.0
2019-Aug-15 11:28N 60°24' E 005°19'0 0.0
2019-Aug-15 10:58N 60°24' E 005°19'0 0.0
2019-Aug-15 10:28N 60°24' E 005°19'0 0.0
2019-Aug-15 09:58N 60°24' E 005°19'0 0.0
2019-Aug-15 09:28N 60°24' E 005°19'0 0.0
2019-Aug-15 08:52N 60°24' E 005°19'0 0.0
2019-Aug-15 08:28N 60°24' E 005°19'0 0.0
2019-Aug-15 07:58N 60°24' E 005°19'0 0.0
2019-Aug-15 07:28N 60°24' E 005°19'0 0.0
2019-Aug-15 06:58N 60°24' E 005°19'0 0.0
2019-Aug-15 06:28N 60°24' E 005°19'0 0.0
2019-Aug-15 05:58N 60°24' E 005°19'0 0.0
2019-Aug-15 05:28N 60°24' E 005°19'0 0.0
2019-Aug-15 04:58N 60°24' E 005°19'0 0.0
2019-Aug-15 04:28N 60°24' E 005°19'0 0.0
2019-Aug-15 03:58N 60°24' E 005°19'0 0.0
2019-Aug-15 03:28N 60°24' E 005°19'0 0.0
2019-Aug-15 02:58N 60°24' E 005°19'0 0.0
2019-Aug-15 02:28N 60°24' E 005°19'0 0.0
2019-Aug-15 01:58N 60°24' E 005°19'0 0.0
2019-Aug-15 01:28N 60°24' E 005°19'0 0.0
2019-Aug-15 00:58N 60°24' E 005°19'0 0.0
2019-Aug-15 00:28N 60°24' E 005°19'0 0.0
2019-Aug-14 23:58N 60°24' E 005°19'0 0.0
2019-Aug-14 23:28N 60°24' E 005°19'0 0.0
2019-Aug-14 22:58N 60°24' E 005°19'0 0.0
2019-Aug-14 22:28N 60°24' E 005°19'0 0.0
2019-Aug-14 21:58N 60°24' E 005°19'0 0.0
2019-Aug-14 21:28N 60°24' E 005°19'0 0.0
2019-Aug-14 20:58N 60°24' E 005°19'0 0.0
2019-Aug-14 20:28N 60°24' E 005°19'0 0.0
2019-Aug-14 19:58N 60°24' E 005°19'0 0.0
2019-Aug-14 19:28N 60°24' E 005°19'0 0.0
2019-Aug-14 18:58N 60°24' E 005°19'0 0.0
2019-Aug-14 18:28N 60°24' E 005°19'0 0.0
2019-Aug-14 17:58N 60°24' E 005°19'0 0.0
2019-Aug-14 17:28N 60°24' E 005°19'0 0.0
2019-Aug-14 16:58N 60°24' E 005°19'0 0.0
2019-Aug-14 16:28N 60°24' E 005°19'0 0.0
2019-Aug-14 15:58N 60°24' E 005°19'0 0.0
2019-Aug-14 15:28N 60°24' E 005°19'0 0.0
2019-Aug-14 14:58N 60°24' E 005°19'0 0.0
2019-Aug-14 14:28N 60°24' E 005°19'0 0.0
2019-Aug-14 13:58N 60°24' E 005°19'0 0.0
2019-Aug-14 13:28N 60°24' E 005°19'0 0.0
2019-Aug-14 12:58N 60°24' E 005°19'0 0.0
2019-Aug-14 12:28N 60°24' E 005°19'0 0.0
2019-Aug-14 11:58N 60°24' E 005°19'0 0.0
2019-Aug-14 11:28N 60°24' E 005°19'0 0.0
2019-Aug-14 10:58N 60°24' E 005°19'0 0.0
2019-Aug-14 10:28N 60°24' E 005°19'0 0.0
2019-Aug-14 09:58N 60°24' E 005°19'0 0.0
2019-Aug-14 09:28N 60°24' E 005°19'0 0.0
2019-Aug-14 08:58N 60°24' E 005°19'0 0.0
2019-Aug-14 08:28N 60°24' E 005°19'0 0.0
2019-Aug-14 07:58N 60°24' E 005°19'0 0.0
2019-Aug-14 07:28N 60°24' E 005°19'0 0.0
2019-Aug-14 06:58N 60°24' E 005°19'0 0.0
2019-Aug-14 06:28N 60°24' E 005°19'0 0.0
2019-Aug-14 05:58N 60°24' E 005°19'1 1.2
2019-Aug-14 05:30N 60°24' E 005°18'5 9.8
2019-Aug-14 05:00N 60°21' E 005°10'713.3
2019-Aug-14 04:30N 60°14' E 005°09'612.2
2019-Aug-14 04:00N 60°09' E 005°03'612.4
2019-Aug-14 03:30N 60°08' E 004°51'714.3
2019-Aug-14 03:00N 60°08' E 004°37'714.2
2019-Aug-14 02:30N 60°08' E 004°22'714.0
2019-Aug-14 02:00N 60°08' E 004°08'713.6
2019-Aug-14 01:30N 60°08' E 003°55'713.7
2019-Aug-14 01:00N 60°08' E 003°41'713.9
2019-Aug-14 00:30N 60°08' E 003°27'816.0
2019-Aug-14 00:00N 60°08' E 003°11'817.0
2019-Aug-13 23:30N 60°07' E 002°54'1017.1
2019-Aug-13 22:56N 60°07' E 002°34'173 7.0
2019-Aug-12 22:11N 58°30' W 002°06'314.5
2019-Aug-12 21:58N 58°27' W 002°08'1414.6
2019-Aug-12 21:00N 58°13' W 002°18'33 1.7
2019-Aug-12 01:33N 57°45' W 001°48'117.9
2019-Aug-12 01:30N 57°44' W 001°47'917.8
2019-Aug-12 01:01N 57°37' W 001°37'917.3
2019-Aug-12 00:31N 57°29' W 001°34'917.3
2019-Aug-12 00:01N 57°20' W 001°34'917.3
2019-Aug-11 23:30N 57°11' W 001°33'916.8
2019-Aug-11 22:59N 57°03' W 001°38'817.2
2019-Aug-11 22:30N 56°55' W 001°43'2517.4
2019-Aug-11 21:03N 56°32' W 002°02'117.5
2019-Aug-11 21:00N 56°31' W 002°02'1117.4
2019-Aug-11 20:24N 56°22' W 002°12'717.5
2019-Aug-11 20:01N 56°17' W 002°19'917.8
2019-Aug-11 19:31N 56°10' W 002°29'816.9
2019-Aug-11 19:01N 56°07' W 002°43'816.2
2019-Aug-11 18:31N 56°04' W 002°57'612.5
2019-Aug-11 18:00N 56°01' W 003°07'3 5.5
2019-Aug-11 17:30N 56°00' W 003°11'0 0.1
2019-Aug-11 17:00N 56°00' W 003°11'0 0.0
2019-Aug-11 16:30N 56°00' W 003°11'0 0.0
2019-Aug-11 16:00N 56°00' W 003°11'0 0.0
2019-Aug-11 15:30N 56°00' W 003°11'0 0.0
2019-Aug-11 15:00N 56°00' W 003°11'0 0.1
2019-Aug-11 14:30N 56°00' W 003°11'0 0.1
2019-Aug-11 14:00N 56°00' W 003°11'0 0.0
2019-Aug-11 13:30N 56°00' W 003°11'0 0.1
2019-Aug-11 13:00N 56°00' W 003°11'0 0.0
2019-Aug-11 12:30N 56°00' W 003°11'0 0.0
2019-Aug-11 12:00N 56°00' W 003°11'0 0.1
2019-Aug-11 11:30N 56°00' W 003°11'0 0.0
2019-Aug-11 11:00N 56°00' W 003°11'0 0.1
2019-Aug-11 10:30N 56°00' W 003°11'0 0.0
2019-Aug-11 10:00N 56°00' W 003°11'0 0.0
2019-Aug-11 09:30N 56°00' W 003°11'0 0.0
2019-Aug-11 09:00N 56°00' W 003°11'0 0.0
2019-Aug-11 08:30N 56°00' W 003°11'0 0.0
2019-Aug-11 08:00N 56°00' W 003°11'0 0.0
2019-Aug-11 07:30N 56°00' W 003°11'0 0.1
2019-Aug-11 07:00N 56°00' W 003°11'1 2.3
2019-Aug-11 06:30N 56°00' W 003°09'613.0
2019-Aug-11 06:01N 56°04' W 002°59'714.0
2019-Aug-11 05:31N 56°06' W 002°47'815.3
2019-Aug-11 05:01N 56°09' W 002°35'714.7
2019-Aug-11 04:31N 56°13' W 002°24'815.3
2019-Aug-11 04:00N 56°20' W 002°16'815.4
2019-Aug-11 03:30N 56°26' W 002°08'715.0
2019-Aug-11 03:01N 56°32' W 002°01'2314.8
2019-Aug-11 01:27N 56°54' W 001°45'714.9
2019-Aug-11 01:01N 56°60' W 001°41'814.5
2019-Aug-11 00:29N 57°07' W 001°37'714.8
2019-Aug-11 00:01N 57°14' W 001°35'915.0
2019-Aug-10 23:23N 57°23' W 001°34'615.4
2019-Aug-10 23:01N 57°29' W 001°34'815.8
2019-Aug-10 22:30N 57°37' W 001°36'7515.4
2019-Aug-10 17:36N 58°47' W 002°27'314.7
2019-Aug-10 17:24N 58°50' W 002°30'615.1
2019-Aug-10 17:00N 58°55' W 002°36'815.9
2019-Aug-10 16:30N 59°00' W 002°48'510.5
2019-Aug-10 16:00N 59°01' W 002°58'1 1.2
2019-Aug-10 15:28N 58°60' W 002°58'0 0.0
2019-Aug-10 14:58N 58°60' W 002°58'0 0.0
2019-Aug-10 14:28N 58°60' W 002°58'0 0.0
2019-Aug-10 13:58N 58°60' W 002°58'0 0.0
2019-Aug-10 13:28N 58°60' W 002°58'0 0.0
2019-Aug-10 12:58N 58°60' W 002°58'0 0.0
2019-Aug-10 12:28N 58°60' W 002°58'0 0.0
2019-Aug-10 11:55N 58°60' W 002°58'0 0.0
2019-Aug-10 11:28N 58°60' W 002°58'0 0.0
2019-Aug-10 10:58N 58°60' W 002°58'  

Dump ship's entire track history